EIN93T LPFR-EIDW
Flight info
| Callsign | EIN93T |
|---|---|
| Flight time | 2h 29m |
| Altitude | 40000 |
| Route | SOTEX1V SOTEX DCT TERVA DCT RIPEL DCT ADVAT/M080F390 T290 GELPO DCT JABEX/N0458F390 DCT BIBLA DCT SUTEX SUTEX4L |
| Aircraft | A333/H-SDE3GHIJ2J3J5M1RVWXY/LB2D1 |
Departure
| Time | 2026-05-05 18:07 |
|---|---|
| Airport | Faro - Gago Coutinho International Airport (LPFR) |
Arrival
| Time | 2026-05-05 20:36 |
|---|---|
| Airport | Dublin Airport (EIDW) |
| Time | Latitude | Longitude | Altitude | Speed | Heading |
|---|---|---|---|---|---|
| 2026-05-05 17:09 | 37.01928 | -7.96985 | 24 ft | 0 kts | 10° |
| 2026-05-05 17:56 | 37.01907 | -7.96988 | 29 ft | 3 kts | 358° |
| 2026-05-05 17:57 | 37.01886 | -7.96984 | 29 ft | 3 kts | 338° |
| 2026-05-05 17:57 | 37.01866 | -7.96971 | 28 ft | 3 kts | 317° |
| 2026-05-05 17:57 | 37.01852 | -7.96950 | 30 ft | 3 kts | 300° |
| 2026-05-05 17:57 | 37.01842 | -7.96925 | 30 ft | 3 kts | 289° |
| 2026-05-05 17:58 | 37.01836 | -7.96898 | 30 ft | 3 kts | 281° |
| 2026-05-05 17:58 | 37.01832 | -7.96870 | 29 ft | 3 kts | 276° |
| 2026-05-05 17:58 | 37.01830 | -7.96842 | 28 ft | 3 kts | 277° |
| 2026-05-05 17:58 | 37.01829 | -7.96833 | 29 ft | 0 kts | 279° |
| 2026-05-05 18:02 | 37.01829 | -7.96835 | 29 ft | 1 kts | 279° |
| 2026-05-05 18:02 | 37.01828 | -7.96847 | 29 ft | 2 kts | 261° |
| 2026-05-05 18:02 | 37.01817 | -7.96866 | 29 ft | 3 kts | 225° |
| 2026-05-05 18:02 | 37.01791 | -7.96885 | 28 ft | 5 kts | 205° |
| 2026-05-05 18:03 | 37.01747 | -7.96899 | 27 ft | 8 kts | 192° |
| 2026-05-05 18:03 | 37.01687 | -7.96892 | 28 ft | 9 kts | 148° |
| 2026-05-05 18:03 | 37.01659 | -7.96811 | 24 ft | 12 kts | 102° |
| 2026-05-05 18:03 | 37.01642 | -7.96702 | 29 ft | 14 kts | 100° |
| 2026-05-05 18:04 | 37.01624 | -7.96572 | 28 ft | 16 kts | 99° |
| 2026-05-05 18:04 | 37.01604 | -7.96425 | 27 ft | 17 kts | 100° |
| 2026-05-05 18:04 | 37.01583 | -7.96282 | 27 ft | 16 kts | 100° |
| 2026-05-05 18:04 | 37.01563 | -7.96142 | 24 ft | 18 kts | 100° |
| 2026-05-05 18:05 | 37.01540 | -7.95979 | 27 ft | 20 kts | 100° |
| 2026-05-05 18:05 | 37.01475 | -7.95843 | 25 ft | 18 kts | 169° |
| 2026-05-05 18:05 | 37.01372 | -7.95866 | 28 ft | 11 kts | 206° |
| 2026-05-05 18:05 | 37.01351 | -7.95939 | 28 ft | 10 kts | 275° |
| 2026-05-05 18:06 | 37.01366 | -7.96039 | 28 ft | 19 kts | 280° |
| 2026-05-05 18:06 | 37.01393 | -7.96225 | 28 ft | 53 kts | 280° |
| 2026-05-05 18:06 | 37.01541 | -7.97278 | 28 ft | 127 kts | 280° |
| 2026-05-05 18:06 | 37.01714 | -7.98537 | 220 ft | 157 kts | 284° |
| 2026-05-05 18:07 | 37.01901 | -7.99925 | 649 ft | 172 kts | 280° |
| 2026-05-05 18:07 | 37.02093 | -8.01485 | 1084 ft | 190 kts | 281° |
| 2026-05-05 18:07 | 37.02284 | -8.03190 | 1657 ft | 203 kts | 283° |
| 2026-05-05 18:07 | 37.02551 | -8.04906 | 2418 ft | 201 kts | 285° |
| 2026-05-05 18:08 | 37.02847 | -8.06643 | 3017 ft | 208 kts | 285° |
| 2026-05-05 18:08 | 37.03142 | -8.08447 | 3677 ft | 214 kts | 286° |
| 2026-05-05 18:08 | 37.03450 | -8.10286 | 4456 ft | 217 kts | 291° |
| 2026-05-05 18:08 | 37.04134 | -8.11959 | 5139 ft | 217 kts | 317° |
| 2026-05-05 18:09 | 37.05384 | -8.12968 | 5676 ft | 227 kts | 344° |
| 2026-05-05 18:09 | 37.07022 | -8.13282 | 6068 ft | 248 kts | 357° |
| 2026-05-05 18:09 | 37.08776 | -8.13375 | 6804 ft | 255 kts | 358° |
| 2026-05-05 18:09 | 37.10566 | -8.13457 | 7621 ft | 261 kts | 357° |
| 2026-05-05 18:10 | 37.12411 | -8.13558 | 8371 ft | 269 kts | 356° |
| 2026-05-05 18:10 | 37.14309 | -8.13677 | 9170 ft | 275 kts | 355° |
| 2026-05-05 18:10 | 37.16233 | -8.13805 | 10056 ft | 278 kts | 354° |
| 2026-05-05 18:10 | 37.18218 | -8.13943 | 10538 ft | 296 kts | 354° |
| 2026-05-05 18:11 | 37.20330 | -8.14094 | 10831 ft | 318 kts | 354° |
| 2026-05-05 18:11 | 37.22615 | -8.14259 | 11196 ft | 335 kts | 354° |
| 2026-05-05 18:11 | 37.24974 | -8.14427 | 11828 ft | 343 kts | 354° |
| 2026-05-05 18:11 | 37.27357 | -8.14596 | 12473 ft | 349 kts | 354° |
| 2026-05-05 18:12 | 37.29794 | -8.14769 | 13233 ft | 352 kts | 354° |
| 2026-05-05 18:12 | 37.32255 | -8.14944 | 13974 ft | 355 kts | 354° |
| 2026-05-05 18:12 | 37.34742 | -8.15122 | 14578 ft | 360 kts | 354° |
| 2026-05-05 18:12 | 37.37261 | -8.15303 | 15186 ft | 364 kts | 353° |
| 2026-05-05 18:13 | 37.39816 | -8.15486 | 15789 ft | 369 kts | 354° |
| 2026-05-05 18:13 | 37.42363 | -8.15669 | 16385 ft | 374 kts | 354° |
| 2026-05-05 18:13 | 37.44973 | -8.15857 | 16992 ft | 377 kts | 354° |
| 2026-05-05 18:13 | 37.47607 | -8.16046 | 17618 ft | 381 kts | 353° |
| 2026-05-05 18:14 | 37.50276 | -8.16239 | 18200 ft | 385 kts | 353° |
| 2026-05-05 18:14 | 37.52966 | -8.16433 | 18710 ft | 389 kts | 353° |
| 2026-05-05 18:14 | 37.55694 | -8.16630 | 19237 ft | 392 kts | 353° |
| 2026-05-05 18:14 | 37.58404 | -8.16826 | 19760 ft | 395 kts | 353° |
| 2026-05-05 18:15 | 37.61157 | -8.17024 | 20278 ft | 398 kts | 353° |
| 2026-05-05 18:15 | 37.63932 | -8.17225 | 20780 ft | 401 kts | 353° |
| 2026-05-05 18:15 | 37.66726 | -8.17427 | 21283 ft | 404 kts | 353° |
| 2026-05-05 18:15 | 37.69540 | -8.17630 | 21814 ft | 406 kts | 353° |
| 2026-05-05 18:16 | 37.72370 | -8.17835 | 22324 ft | 408 kts | 353° |
| 2026-05-05 18:16 | 37.75182 | -8.18039 | 22799 ft | 411 kts | 353° |
| 2026-05-05 18:16 | 37.78048 | -8.18247 | 23270 ft | 414 kts | 353° |
| 2026-05-05 18:16 | 37.80940 | -8.18457 | 23712 ft | 417 kts | 353° |
| 2026-05-05 18:17 | 37.83846 | -8.18668 | 24086 ft | 420 kts | 353° |
| 2026-05-05 18:17 | 37.86779 | -8.18882 | 24459 ft | 423 kts | 352° |
| 2026-05-05 18:17 | 37.89723 | -8.19096 | 24842 ft | 425 kts | 352° |
| 2026-05-05 18:17 | 37.92685 | -8.19311 | 25254 ft | 427 kts | 352° |
| 2026-05-05 18:18 | 37.95627 | -8.19525 | 25644 ft | 429 kts | 352° |
| 2026-05-05 18:18 | 37.98629 | -8.19744 | 26004 ft | 432 kts | 352° |
| 2026-05-05 18:18 | 38.01638 | -8.19964 | 26355 ft | 434 kts | 351° |
| 2026-05-05 18:18 | 38.04630 | -8.20183 | 26710 ft | 437 kts | 351° |
| 2026-05-05 18:19 | 38.07678 | -8.20405 | 27060 ft | 439 kts | 351° |
| 2026-05-05 18:19 | 38.10743 | -8.20630 | 27411 ft | 442 kts | 351° |
| 2026-05-05 18:19 | 38.13832 | -8.20856 | 27756 ft | 444 kts | 351° |
| 2026-05-05 18:19 | 38.16891 | -8.21080 | 28081 ft | 447 kts | 351° |
| 2026-05-05 18:20 | 38.20015 | -8.21309 | 28422 ft | 449 kts | 350° |
| 2026-05-05 18:20 | 38.23145 | -8.21539 | 28748 ft | 451 kts | 350° |
| 2026-05-05 18:20 | 38.26264 | -8.21768 | 29066 ft | 454 kts | 350° |
| 2026-05-05 18:20 | 38.29430 | -8.22022 | 29378 ft | 455 kts | 348° |
| 2026-05-05 18:21 | 38.32584 | -8.22423 | 29700 ft | 455 kts | 346° |
| 2026-05-05 18:21 | 38.35731 | -8.22933 | 30034 ft | 457 kts | 345° |
| 2026-05-05 18:21 | 38.38891 | -8.23495 | 30337 ft | 458 kts | 345° |
| 2026-05-05 18:21 | 38.42055 | -8.24070 | 30612 ft | 460 kts | 345° |
| 2026-05-05 18:22 | 38.45238 | -8.24641 | 30872 ft | 462 kts | 345° |
| 2026-05-05 18:22 | 38.48390 | -8.25197 | 31134 ft | 464 kts | 345° |
| 2026-05-05 18:22 | 38.51600 | -8.25753 | 31396 ft | 466 kts | 345° |
| 2026-05-05 18:22 | 38.54820 | -8.26304 | 31666 ft | 467 kts | 345° |
| 2026-05-05 18:23 | 38.58060 | -8.26852 | 32030 ft | 466 kts | 345° |
| 2026-05-05 18:23 | 38.61276 | -8.27393 | 32468 ft | 465 kts | 345° |
| 2026-05-05 18:23 | 38.64472 | -8.27930 | 32922 ft | 461 kts | 345° |
| 2026-05-05 18:23 | 38.67653 | -8.28466 | 33309 ft | 460 kts | 345° |
| 2026-05-05 18:24 | 38.70822 | -8.29004 | 33631 ft | 460 kts | 345° |
| 2026-05-05 18:24 | 38.73995 | -8.29544 | 33952 ft | 459 kts | 345° |
| 2026-05-05 18:24 | 38.77120 | -8.30076 | 34241 ft | 459 kts | 345° |
| 2026-05-05 18:24 | 38.80297 | -8.30618 | 34507 ft | 459 kts | 345° |
| 2026-05-05 18:25 | 38.83465 | -8.31159 | 34784 ft | 459 kts | 345° |
| 2026-05-05 18:25 | 38.85565 | -8.31517 | 34962 ft | 458 kts | 345° |
| 2026-05-05 18:25 | 38.89792 | -8.32240 | 35310 ft | 458 kts | 345° |
| 2026-05-05 18:25 | 38.92952 | -8.32781 | 35556 ft | 458 kts | 345° |
| 2026-05-05 18:26 | 38.96077 | -8.33317 | 35799 ft | 458 kts | 345° |
| 2026-05-05 18:26 | 38.99245 | -8.33861 | 36019 ft | 458 kts | 345° |
| 2026-05-05 18:26 | 39.02405 | -8.34403 | 36245 ft | 458 kts | 345° |
| 2026-05-05 18:26 | 39.05577 | -8.34947 | 36486 ft | 459 kts | 346° |
| 2026-05-05 18:27 | 39.08707 | -8.35485 | 36710 ft | 459 kts | 346° |
| 2026-05-05 18:27 | 39.11880 | -8.36030 | 36957 ft | 458 kts | 346° |
| 2026-05-05 18:27 | 39.15037 | -8.36573 | 37187 ft | 458 kts | 346° |
| 2026-05-05 18:27 | 39.18199 | -8.37118 | 37392 ft | 458 kts | 346° |
| 2026-05-05 18:28 | 39.24528 | -8.38211 | 37819 ft | 458 kts | 346° |
| 2026-05-05 18:28 | 39.27654 | -8.38751 | 38026 ft | 458 kts | 346° |
| 2026-05-05 18:28 | 39.30812 | -8.39297 | 38281 ft | 457 kts | 346° |
| 2026-05-05 18:29 | 39.33972 | -8.39843 | 38514 ft | 456 kts | 346° |
| 2026-05-05 18:29 | 39.37119 | -8.40388 | 38723 ft | 456 kts | 346° |
| 2026-05-05 18:29 | 39.40273 | -8.40935 | 38873 ft | 456 kts | 347° |
| 2026-05-05 18:29 | 39.43423 | -8.41482 | 39023 ft | 456 kts | 347° |
| 2026-05-05 18:30 | 39.46570 | -8.42029 | 39158 ft | 457 kts | 347° |
| 2026-05-05 18:30 | 39.49681 | -8.42571 | 39292 ft | 457 kts | 347° |
| 2026-05-05 18:30 | 39.52831 | -8.43119 | 39466 ft | 456 kts | 347° |
| 2026-05-05 18:30 | 39.55984 | -8.43668 | 39619 ft | 456 kts | 347° |
| 2026-05-05 18:31 | 39.59130 | -8.44216 | 39763 ft | 456 kts | 347° |
| 2026-05-05 18:31 | 39.62280 | -8.44766 | 39893 ft | 456 kts | 347° |
| 2026-05-05 18:31 | 39.65433 | -8.45317 | 40009 ft | 457 kts | 347° |
| 2026-05-05 18:31 | 39.68592 | -8.45871 | 40055 ft | 459 kts | 347° |
| 2026-05-05 18:32 | 39.74946 | -8.46985 | 40056 ft | 461 kts | 347° |
| 2026-05-05 18:32 | 39.81266 | -8.48092 | 40046 ft | 460 kts | 347° |
| 2026-05-05 18:33 | 39.87621 | -8.49208 | 40061 ft | 460 kts | 347° |
| 2026-05-05 18:33 | 39.93968 | -8.50325 | 40054 ft | 460 kts | 347° |
| 2026-05-05 18:34 | 40.00279 | -8.51438 | 40060 ft | 460 kts | 347° |
| 2026-05-05 18:34 | 40.06629 | -8.52559 | 40057 ft | 460 kts | 347° |
| 2026-05-05 18:35 | 40.12978 | -8.53684 | 40059 ft | 460 kts | 347° |
| 2026-05-05 18:35 | 40.19303 | -8.54806 | 40061 ft | 460 kts | 347° |
| 2026-05-05 18:36 | 40.24586 | -8.55745 | 40059 ft | 460 kts | 347° |
| 2026-05-05 18:36 | 40.31974 | -8.57060 | 40061 ft | 460 kts | 347° |
| 2026-05-05 18:37 | 40.37253 | -8.58002 | 40059 ft | 460 kts | 347° |
| 2026-05-05 18:37 | 40.44628 | -8.59320 | 40061 ft | 460 kts | 347° |
| 2026-05-05 18:38 | 40.49945 | -8.60272 | 40061 ft | 460 kts | 347° |
| 2026-05-05 18:38 | 40.56257 | -8.61403 | 40061 ft | 460 kts | 347° |
| 2026-05-05 18:39 | 40.62606 | -8.62544 | 40060 ft | 460 kts | 347° |
| 2026-05-05 18:39 | 40.68959 | -8.63688 | 40061 ft | 460 kts | 347° |
| 2026-05-05 18:40 | 40.75276 | -8.64828 | 40063 ft | 460 kts | 347° |
| 2026-05-05 18:40 | 40.81639 | -8.65978 | 40091 ft | 460 kts | 348° |
| 2026-05-05 18:41 | 40.87954 | -8.67121 | 40075 ft | 460 kts | 348° |
| 2026-05-05 18:41 | 40.94317 | -8.68276 | 40075 ft | 460 kts | 348° |
| 2026-05-05 18:42 | 41.00624 | -8.69422 | 40075 ft | 460 kts | 348° |
| 2026-05-05 18:42 | 41.06995 | -8.70583 | 40069 ft | 460 kts | 348° |
| 2026-05-05 18:43 | 41.13313 | -8.71736 | 40070 ft | 460 kts | 348° |
| 2026-05-05 18:43 | 41.19650 | -8.72894 | 40072 ft | 460 kts | 348° |
| 2026-05-05 18:44 | 41.26011 | -8.74060 | 40078 ft | 460 kts | 348° |
| 2026-05-05 18:44 | 41.32332 | -8.75220 | 40077 ft | 460 kts | 348° |
| 2026-05-05 18:45 | 41.38660 | -8.76384 | 40071 ft | 460 kts | 348° |
| 2026-05-05 18:45 | 41.45001 | -8.77553 | 40080 ft | 460 kts | 348° |
| 2026-05-05 18:46 | 41.51349 | -8.78725 | 40060 ft | 460 kts | 348° |
| 2026-05-05 18:46 | 41.57662 | -8.79893 | 40064 ft | 459 kts | 348° |
| 2026-05-05 18:47 | 41.64004 | -8.81068 | 40065 ft | 459 kts | 348° |
| 2026-05-05 18:47 | 41.70315 | -8.82240 | 40064 ft | 459 kts | 348° |
| 2026-05-05 18:48 | 41.76655 | -8.83419 | 40064 ft | 459 kts | 348° |
| 2026-05-05 18:48 | 41.82959 | -8.84595 | 40061 ft | 458 kts | 348° |
| 2026-05-05 18:49 | 41.89300 | -8.85780 | 40066 ft | 458 kts | 348° |
| 2026-05-05 18:49 | 41.95589 | -8.86958 | 40069 ft | 458 kts | 348° |
| 2026-05-05 18:50 | 42.01904 | -8.88143 | 40067 ft | 457 kts | 348° |
| 2026-05-05 18:50 | 42.08180 | -8.89324 | 40070 ft | 458 kts | 348° |
| 2026-05-05 18:51 | 42.14508 | -8.90516 | 40070 ft | 457 kts | 348° |
| 2026-05-05 18:51 | 42.20788 | -8.91701 | 40075 ft | 457 kts | 348° |
| 2026-05-05 18:52 | 42.27076 | -8.92890 | 40077 ft | 457 kts | 348° |
| 2026-05-05 18:52 | 42.33381 | -8.94085 | 40066 ft | 456 kts | 349° |
| 2026-05-05 18:53 | 42.39654 | -8.95276 | 40072 ft | 456 kts | 349° |
| 2026-05-05 18:53 | 42.45930 | -8.96470 | 40067 ft | 456 kts | 349° |
| 2026-05-05 18:54 | 42.52224 | -8.97670 | 40065 ft | 456 kts | 348° |
| 2026-05-05 18:54 | 42.58500 | -8.98869 | 40064 ft | 456 kts | 348° |
| 2026-05-05 18:55 | 42.64763 | -9.00068 | 40067 ft | 456 kts | 348° |
| 2026-05-05 18:55 | 42.71033 | -9.01271 | 40070 ft | 456 kts | 349° |
| 2026-05-05 18:56 | 42.77329 | -9.02480 | 40075 ft | 456 kts | 349° |
| 2026-05-05 18:56 | 42.83618 | -9.03690 | 40073 ft | 456 kts | 349° |
| 2026-05-05 18:57 | 42.89864 | -9.04894 | 40082 ft | 456 kts | 349° |
| 2026-05-05 18:57 | 42.96154 | -9.06111 | 40075 ft | 455 kts | 349° |
| 2026-05-05 18:58 | 43.02442 | -9.07328 | 40078 ft | 455 kts | 349° |
| 2026-05-05 18:58 | 43.08687 | -9.08540 | 40081 ft | 455 kts | 349° |
| 2026-05-05 18:59 | 43.14963 | -9.09761 | 40078 ft | 456 kts | 349° |
| 2026-05-05 18:59 | 43.21260 | -9.10989 | 40076 ft | 456 kts | 349° |
| 2026-05-05 19:00 | 43.27514 | -9.12210 | 40090 ft | 456 kts | 349° |
| 2026-05-05 19:01 | 43.40087 | -9.14673 | 40078 ft | 455 kts | 349° |
| 2026-05-05 19:01 | 43.46370 | -9.15908 | 40084 ft | 455 kts | 349° |
| 2026-05-05 19:02 | 43.52615 | -9.17139 | 40077 ft | 455 kts | 349° |
| 2026-05-05 19:02 | 43.58856 | -9.18371 | 40075 ft | 455 kts | 349° |
| 2026-05-05 19:03 | 43.65112 | -9.19609 | 40075 ft | 455 kts | 349° |
| 2026-05-05 19:03 | 43.71360 | -9.20848 | 40082 ft | 455 kts | 349° |
| 2026-05-05 19:04 | 43.77629 | -9.22094 | 40078 ft | 454 kts | 349° |
| 2026-05-05 19:04 | 43.83900 | -9.23343 | 40079 ft | 454 kts | 349° |
| 2026-05-05 19:05 | 43.90134 | -9.24587 | 40078 ft | 454 kts | 349° |
| 2026-05-05 19:05 | 43.96386 | -9.25837 | 40077 ft | 454 kts | 349° |
| 2026-05-05 19:06 | 44.02639 | -9.27090 | 40076 ft | 454 kts | 349° |
| 2026-05-05 19:06 | 44.08870 | -9.28342 | 40076 ft | 454 kts | 350° |
| 2026-05-05 19:07 | 44.15141 | -9.29604 | 40073 ft | 454 kts | 350° |
| 2026-05-05 19:07 | 44.21363 | -9.30859 | 40076 ft | 454 kts | 350° |
| 2026-05-05 19:08 | 44.27609 | -9.32121 | 40079 ft | 454 kts | 350° |
| 2026-05-05 19:08 | 44.33849 | -9.33385 | 40070 ft | 454 kts | 350° |
| 2026-05-05 19:09 | 44.40119 | -9.34658 | 40070 ft | 454 kts | 350° |
| 2026-05-05 19:09 | 44.46347 | -9.35925 | 40083 ft | 454 kts | 350° |
| 2026-05-05 19:10 | 44.52589 | -9.37198 | 40071 ft | 454 kts | 350° |
| 2026-05-05 19:10 | 44.58858 | -9.38479 | 40070 ft | 454 kts | 350° |
| 2026-05-05 19:11 | 44.65096 | -9.39756 | 40075 ft | 454 kts | 350° |
| 2026-05-05 19:11 | 44.71361 | -9.41042 | 40075 ft | 454 kts | 350° |
| 2026-05-05 19:12 | 44.77590 | -9.42323 | 40074 ft | 454 kts | 350° |
| 2026-05-05 19:12 | 44.83851 | -9.43615 | 40075 ft | 454 kts | 350° |
| 2026-05-05 19:13 | 44.90084 | -9.44903 | 40075 ft | 454 kts | 350° |
| 2026-05-05 19:13 | 44.96349 | -9.46200 | 40075 ft | 454 kts | 350° |
| 2026-05-05 19:14 | 45.02651 | -9.46933 | 39964 ft | 455 kts | 356° |
| 2026-05-05 19:14 | 45.05768 | -9.47031 | 39740 ft | 452 kts | 358° |
| 2026-05-05 19:14 | 45.08907 | -9.47081 | 39512 ft | 450 kts | 358° |
| 2026-05-05 19:15 | 45.12058 | -9.47105 | 39289 ft | 449 kts | 358° |
| 2026-05-05 19:15 | 45.15148 | -9.47120 | 39118 ft | 449 kts | 358° |
| 2026-05-05 19:15 | 45.21421 | -9.47151 | 39080 ft | 451 kts | 358° |
| 2026-05-05 19:16 | 45.27720 | -9.47196 | 39083 ft | 452 kts | 358° |
| 2026-05-05 19:16 | 45.33983 | -9.47249 | 39075 ft | 452 kts | 358° |
| 2026-05-05 19:17 | 45.40273 | -9.47303 | 39079 ft | 452 kts | 358° |
| 2026-05-05 19:17 | 45.46562 | -9.47358 | 39080 ft | 452 kts | 358° |
| 2026-05-05 19:18 | 45.52826 | -9.47412 | 39080 ft | 452 kts | 358° |
| 2026-05-05 19:18 | 45.59124 | -9.47465 | 39085 ft | 452 kts | 358° |
| 2026-05-05 19:19 | 45.65397 | -9.47518 | 39083 ft | 452 kts | 358° |
| 2026-05-05 19:19 | 45.71711 | -9.47572 | 39083 ft | 452 kts | 358° |
| 2026-05-05 19:20 | 45.77987 | -9.47626 | 39089 ft | 452 kts | 358° |
| 2026-05-05 19:20 | 45.84251 | -9.47681 | 39087 ft | 452 kts | 358° |
| 2026-05-05 19:21 | 45.90546 | -9.47736 | 39083 ft | 452 kts | 358° |
| 2026-05-05 19:21 | 45.96817 | -9.47790 | 39080 ft | 452 kts | 358° |
| 2026-05-05 19:22 | 46.03110 | -9.47845 | 39083 ft | 451 kts | 358° |
| 2026-05-05 19:22 | 46.09358 | -9.47900 | 39084 ft | 451 kts | 358° |
| 2026-05-05 19:23 | 46.15652 | -9.47955 | 39083 ft | 451 kts | 358° |
| 2026-05-05 19:23 | 46.21901 | -9.48010 | 39088 ft | 451 kts | 358° |
| 2026-05-05 19:24 | 46.28163 | -9.48066 | 39085 ft | 451 kts | 358° |
| 2026-05-05 19:24 | 46.34451 | -9.48121 | 39083 ft | 451 kts | 358° |
| 2026-05-05 19:25 | 46.40713 | -9.48177 | 39083 ft | 451 kts | 358° |
| 2026-05-05 19:25 | 46.47000 | -9.48233 | 39086 ft | 451 kts | 358° |
| 2026-05-05 19:26 | 46.53250 | -9.48288 | 39086 ft | 451 kts | 358° |
| 2026-05-05 19:26 | 46.59516 | -9.48344 | 39086 ft | 451 kts | 358° |
| 2026-05-05 19:27 | 46.65818 | -9.48401 | 39086 ft | 451 kts | 358° |
| 2026-05-05 19:27 | 46.72061 | -9.48457 | 39088 ft | 451 kts | 358° |
| 2026-05-05 19:28 | 46.78319 | -9.48513 | 39088 ft | 451 kts | 358° |
| 2026-05-05 19:28 | 46.84631 | -9.48570 | 39086 ft | 451 kts | 358° |
| 2026-05-05 19:29 | 46.90904 | -9.48627 | 39086 ft | 451 kts | 358° |
| 2026-05-05 19:29 | 46.97170 | -9.48684 | 39089 ft | 451 kts | 358° |
| 2026-05-05 19:30 | 47.03429 | -9.48741 | 39090 ft | 451 kts | 358° |
| 2026-05-05 19:30 | 47.09686 | -9.48799 | 39093 ft | 451 kts | 359° |
| 2026-05-05 19:31 | 47.15979 | -9.48857 | 39086 ft | 451 kts | 359° |
| 2026-05-05 19:31 | 47.22221 | -9.48914 | 39088 ft | 451 kts | 359° |
| 2026-05-05 19:32 | 47.28518 | -9.48972 | 39091 ft | 452 kts | 358° |
| 2026-05-05 19:32 | 47.34789 | -9.49029 | 39088 ft | 452 kts | 359° |
| 2026-05-05 19:33 | 47.41058 | -9.49087 | 39092 ft | 452 kts | 358° |
| 2026-05-05 19:33 | 47.47374 | -9.49145 | 39089 ft | 452 kts | 358° |
| 2026-05-05 19:34 | 47.53632 | -9.49203 | 39086 ft | 452 kts | 359° |
| 2026-05-05 19:35 | 47.63062 | -9.49291 | 39089 ft | 452 kts | 358° |
| 2026-05-05 19:35 | 47.69335 | -9.49349 | 39089 ft | 452 kts | 358° |
| 2026-05-05 19:36 | 47.75648 | -9.49408 | 39094 ft | 453 kts | 358° |
| 2026-05-05 19:36 | 47.81926 | -9.49466 | 39092 ft | 452 kts | 358° |
| 2026-05-05 19:37 | 47.88210 | -9.49524 | 39086 ft | 453 kts | 358° |
| 2026-05-05 19:37 | 47.94495 | -9.49583 | 39086 ft | 453 kts | 359° |
| 2026-05-05 19:38 | 47.99748 | -9.49631 | 39085 ft | 453 kts | 358° |
| 2026-05-05 19:38 | 48.07111 | -9.49700 | 39086 ft | 453 kts | 358° |
| 2026-05-05 19:39 | 48.13395 | -9.49760 | 39088 ft | 454 kts | 358° |
| 2026-05-05 19:39 | 48.18651 | -9.49810 | 39089 ft | 454 kts | 358° |
| 2026-05-05 19:40 | 48.24987 | -9.49870 | 39089 ft | 454 kts | 358° |
| 2026-05-05 19:40 | 48.31278 | -9.49930 | 39092 ft | 454 kts | 358° |
| 2026-05-05 19:41 | 48.37593 | -9.49990 | 39091 ft | 455 kts | 358° |
| 2026-05-05 19:41 | 48.43907 | -9.50051 | 39086 ft | 454 kts | 359° |
| 2026-05-05 19:42 | 48.50207 | -9.50111 | 39088 ft | 454 kts | 358° |
| 2026-05-05 19:42 | 48.56559 | -9.50172 | 39088 ft | 454 kts | 358° |
| 2026-05-05 19:43 | 48.62853 | -9.50233 | 39086 ft | 454 kts | 358° |
| 2026-05-05 19:43 | 48.69149 | -9.50261 | 39093 ft | 454 kts | 359° |
| 2026-05-05 19:44 | 48.75461 | -9.50255 | 39089 ft | 455 kts | 359° |
| 2026-05-05 19:44 | 48.81773 | -9.50245 | 39086 ft | 455 kts | 359° |
| 2026-05-05 19:45 | 48.88120 | -9.50240 | 39089 ft | 455 kts | 359° |
| 2026-05-05 19:45 | 48.94427 | -9.50237 | 39084 ft | 455 kts | 359° |
| 2026-05-05 19:46 | 49.00771 | -9.49862 | 39086 ft | 457 kts | 6° |
| 2026-05-05 19:46 | 49.07047 | -9.48411 | 39086 ft | 458 kts | 8° |
| 2026-05-05 19:47 | 49.13312 | -9.46750 | 39089 ft | 458 kts | 8° |
| 2026-05-05 19:47 | 49.19616 | -9.45035 | 39089 ft | 459 kts | 8° |
| 2026-05-05 19:48 | 49.25886 | -9.43341 | 39086 ft | 459 kts | 8° |
| 2026-05-05 19:48 | 49.32191 | -9.41646 | 39086 ft | 459 kts | 8° |
| 2026-05-05 19:49 | 49.38495 | -9.39951 | 39085 ft | 460 kts | 8° |
| 2026-05-05 19:49 | 49.44758 | -9.38264 | 39083 ft | 460 kts | 8° |
| 2026-05-05 19:50 | 49.51073 | -9.36556 | 39083 ft | 460 kts | 8° |
| 2026-05-05 19:50 | 49.57362 | -9.34851 | 39083 ft | 460 kts | 8° |
| 2026-05-05 19:51 | 49.63660 | -9.33138 | 39081 ft | 460 kts | 8° |
| 2026-05-05 19:51 | 49.69991 | -9.31412 | 39081 ft | 461 kts | 8° |
| 2026-05-05 19:52 | 49.76286 | -9.29692 | 39083 ft | 461 kts | 8° |
| 2026-05-05 19:52 | 49.82596 | -9.27962 | 39089 ft | 461 kts | 8° |
| 2026-05-05 19:53 | 49.88890 | -9.26233 | 39073 ft | 461 kts | 8° |
| 2026-05-05 19:53 | 49.95199 | -9.24495 | 39086 ft | 461 kts | 8° |
| 2026-05-05 19:54 | 50.01542 | -9.22743 | 39083 ft | 461 kts | 8° |
| 2026-05-05 19:54 | 50.07839 | -9.20999 | 39078 ft | 461 kts | 8° |
| 2026-05-05 19:55 | 50.14152 | -9.19246 | 39077 ft | 462 kts | 8° |
| 2026-05-05 19:55 | 50.20495 | -9.17479 | 39082 ft | 462 kts | 8° |
| 2026-05-05 19:56 | 50.26836 | -9.15708 | 39079 ft | 462 kts | 8° |
| 2026-05-05 19:56 | 50.33142 | -9.13943 | 39080 ft | 462 kts | 8° |
| 2026-05-05 19:57 | 50.39452 | -9.12171 | 39072 ft | 463 kts | 8° |
| 2026-05-05 19:57 | 50.45770 | -9.10393 | 39073 ft | 462 kts | 8° |
| 2026-05-05 19:58 | 50.52119 | -9.08601 | 39069 ft | 462 kts | 8° |
| 2026-05-05 19:58 | 50.58425 | -9.06816 | 39070 ft | 463 kts | 8° |
| 2026-05-05 19:59 | 50.64802 | -9.05006 | 39068 ft | 463 kts | 8° |
| 2026-05-05 19:59 | 50.71102 | -9.03213 | 39075 ft | 463 kts | 8° |
| 2026-05-05 20:00 | 50.77464 | -9.01398 | 39072 ft | 463 kts | 8° |
| 2026-05-05 20:00 | 50.83792 | -8.99587 | 39067 ft | 463 kts | 8° |
| 2026-05-05 20:01 | 50.90138 | -8.97766 | 39068 ft | 463 kts | 8° |
| 2026-05-05 20:01 | 50.96461 | -8.95946 | 39067 ft | 463 kts | 8° |
| 2026-05-05 20:02 | 51.02820 | -8.94112 | 39073 ft | 464 kts | 8° |
| 2026-05-05 20:02 | 51.09154 | -8.92279 | 39065 ft | 464 kts | 8° |
| 2026-05-05 20:03 | 51.15243 | -8.88819 | 39065 ft | 468 kts | 29° |
| 2026-05-05 20:03 | 51.20677 | -8.83047 | 39059 ft | 470 kts | 33° |
| 2026-05-05 20:04 | 51.26015 | -8.77060 | 39070 ft | 471 kts | 33° |
| 2026-05-05 20:04 | 51.31364 | -8.71030 | 39068 ft | 471 kts | 33° |
| 2026-05-05 20:05 | 51.36699 | -8.64997 | 39065 ft | 471 kts | 33° |
| 2026-05-05 20:05 | 51.42031 | -8.58949 | 39071 ft | 471 kts | 33° |
| 2026-05-05 20:06 | 51.47378 | -8.52868 | 39067 ft | 471 kts | 33° |
| 2026-05-05 20:06 | 51.52734 | -8.46759 | 39067 ft | 471 kts | 33° |
| 2026-05-05 20:07 | 51.58087 | -8.40635 | 39064 ft | 472 kts | 34° |
| 2026-05-05 20:07 | 51.63402 | -8.34536 | 39066 ft | 472 kts | 34° |
| 2026-05-05 20:08 | 51.68741 | -8.28393 | 39064 ft | 472 kts | 34° |
| 2026-05-05 20:08 | 51.74067 | -8.22245 | 39068 ft | 472 kts | 34° |
| 2026-05-05 20:09 | 51.79429 | -8.16039 | 39060 ft | 472 kts | 34° |
| 2026-05-05 20:09 | 51.84751 | -8.09860 | 39065 ft | 473 kts | 34° |
| 2026-05-05 20:10 | 51.90106 | -8.03624 | 39061 ft | 473 kts | 34° |
| 2026-05-05 20:10 | 51.95416 | -7.97421 | 39059 ft | 473 kts | 34° |
| 2026-05-05 20:11 | 52.00757 | -7.91164 | 38614 ft | 474 kts | 34° |
| 2026-05-05 20:11 | 52.03441 | -7.88013 | 37881 ft | 476 kts | 34° |
| 2026-05-05 20:11 | 52.06119 | -7.84864 | 37316 ft | 474 kts | 34° |
| 2026-05-05 20:11 | 52.08780 | -7.81728 | 36776 ft | 471 kts | 34° |
| 2026-05-05 20:12 | 52.11407 | -7.78629 | 36230 ft | 470 kts | 34° |
| 2026-05-05 20:12 | 52.14060 | -7.75495 | 35650 ft | 469 kts | 34° |
| 2026-05-05 20:12 | 52.16704 | -7.72368 | 35021 ft | 469 kts | 34° |
| 2026-05-05 20:12 | 52.19351 | -7.69230 | 34360 ft | 470 kts | 34° |
| 2026-05-05 20:13 | 52.21965 | -7.66129 | 33602 ft | 471 kts | 34° |
| 2026-05-05 20:13 | 52.24627 | -7.62966 | 32835 ft | 472 kts | 34° |
| 2026-05-05 20:13 | 52.27298 | -7.59787 | 32080 ft | 472 kts | 34° |
| 2026-05-05 20:13 | 52.29932 | -7.56647 | 31314 ft | 472 kts | 34° |
| 2026-05-05 20:14 | 52.32591 | -7.53472 | 30628 ft | 471 kts | 34° |
| 2026-05-05 20:14 | 52.35197 | -7.50355 | 30134 ft | 465 kts | 34° |
| 2026-05-05 20:14 | 52.37806 | -7.47229 | 29536 ft | 460 kts | 34° |
| 2026-05-05 20:14 | 52.40377 | -7.44144 | 29001 ft | 454 kts | 34° |
| 2026-05-05 20:15 | 52.42914 | -7.41097 | 28462 ft | 449 kts | 34° |
| 2026-05-05 20:15 | 52.45386 | -7.38124 | 27943 ft | 444 kts | 34° |
| 2026-05-05 20:15 | 52.47868 | -7.35134 | 27407 ft | 439 kts | 34° |
| 2026-05-05 20:15 | 52.50303 | -7.32198 | 26886 ft | 435 kts | 34° |
| 2026-05-05 20:16 | 52.52736 | -7.29259 | 26366 ft | 431 kts | 34° |
| 2026-05-05 20:16 | 52.55151 | -7.26338 | 25843 ft | 428 kts | 34° |
| 2026-05-05 20:16 | 52.57541 | -7.23442 | 25318 ft | 425 kts | 34° |
| 2026-05-05 20:16 | 52.59891 | -7.20592 | 24794 ft | 422 kts | 34° |
| 2026-05-05 20:17 | 52.62253 | -7.17723 | 24278 ft | 420 kts | 34° |
| 2026-05-05 20:17 | 52.64573 | -7.14902 | 23764 ft | 417 kts | 34° |
| 2026-05-05 20:17 | 52.66907 | -7.12060 | 23179 ft | 415 kts | 34° |
| 2026-05-05 20:17 | 52.69226 | -7.09231 | 22654 ft | 411 kts | 34° |
| 2026-05-05 20:18 | 52.71520 | -7.06430 | 22159 ft | 407 kts | 34° |
| 2026-05-05 20:18 | 52.73761 | -7.03688 | 21647 ft | 403 kts | 34° |
| 2026-05-05 20:18 | 52.76008 | -7.00937 | 21151 ft | 399 kts | 34° |
| 2026-05-05 20:18 | 52.78229 | -6.98214 | 20650 ft | 395 kts | 34° |
| 2026-05-05 20:19 | 52.80405 | -6.95543 | 20165 ft | 392 kts | 34° |
| 2026-05-05 20:19 | 52.82557 | -6.92789 | 19674 ft | 390 kts | 38° |
| 2026-05-05 20:19 | 52.84590 | -6.89835 | 19236 ft | 387 kts | 40° |
| 2026-05-05 20:19 | 52.86581 | -6.86845 | 18755 ft | 384 kts | 40° |
| 2026-05-05 20:20 | 52.88552 | -6.83868 | 18261 ft | 382 kts | 40° |
| 2026-05-05 20:20 | 52.90489 | -6.80940 | 17736 ft | 379 kts | 40° |
| 2026-05-05 20:20 | 52.92424 | -6.78012 | 17265 ft | 375 kts | 40° |
| 2026-05-05 20:20 | 52.94349 | -6.75100 | 16796 ft | 371 kts | 40° |
| 2026-05-05 20:21 | 52.96254 | -6.72214 | 16288 ft | 368 kts | 40° |
| 2026-05-05 20:21 | 52.98134 | -6.69363 | 15827 ft | 365 kts | 40° |
| 2026-05-05 20:21 | 52.99973 | -6.66549 | 15370 ft | 362 kts | 42° |
| 2026-05-05 20:21 | 53.01744 | -6.63588 | 14905 ft | 359 kts | 44° |
| 2026-05-05 20:22 | 53.03470 | -6.60592 | 14435 ft | 356 kts | 44° |
| 2026-05-05 20:22 | 53.05175 | -6.57616 | 13968 ft | 354 kts | 44° |
| 2026-05-05 20:22 | 53.06851 | -6.54688 | 13473 ft | 352 kts | 44° |
| 2026-05-05 20:22 | 53.08529 | -6.51756 | 13019 ft | 348 kts | 44° |
| 2026-05-05 20:23 | 53.10194 | -6.48844 | 12563 ft | 344 kts | 44° |
| 2026-05-05 20:23 | 53.11845 | -6.45957 | 12104 ft | 341 kts | 44° |
| 2026-05-05 20:23 | 53.13455 | -6.43137 | 11655 ft | 338 kts | 45° |
| 2026-05-05 20:23 | 53.15050 | -6.40278 | 11205 ft | 335 kts | 48° |
| 2026-05-05 20:24 | 53.16299 | -6.37019 | 10879 ft | 330 kts | 65° |
| 2026-05-05 20:24 | 53.16846 | -6.33433 | 10696 ft | 316 kts | 84° |
| 2026-05-05 20:24 | 53.16824 | -6.29871 | 10332 ft | 300 kts | 92° |
| 2026-05-05 20:24 | 53.16651 | -6.26457 | 9775 ft | 292 kts | 94° |
| 2026-05-05 20:25 | 53.16459 | -6.23092 | 9092 ft | 288 kts | 94° |
| 2026-05-05 20:25 | 53.16275 | -6.19817 | 8398 ft | 287 kts | 94° |
| 2026-05-05 20:25 | 53.16095 | -6.16516 | 7710 ft | 285 kts | 94° |
| 2026-05-05 20:25 | 53.15917 | -6.13231 | 7044 ft | 283 kts | 94° |
| 2026-05-05 20:26 | 53.15742 | -6.09969 | 6425 ft | 280 kts | 93° |
| 2026-05-05 20:26 | 53.15569 | -6.06755 | 5831 ft | 274 kts | 93° |
| 2026-05-05 20:26 | 53.15435 | -6.03720 | 5566 ft | 256 kts | 85° |
| 2026-05-05 20:26 | 53.15872 | -6.00990 | 5287 ft | 238 kts | 55° |
| 2026-05-05 20:27 | 53.16985 | -5.99063 | 5058 ft | 225 kts | 33° |
| 2026-05-05 20:27 | 53.18293 | -5.97688 | 4701 ft | 220 kts | 25° |
| 2026-05-05 20:27 | 53.19652 | -5.96525 | 4312 ft | 218 kts | 24° |
| 2026-05-05 20:27 | 53.21015 | -5.95405 | 3929 ft | 217 kts | 24° |
| 2026-05-05 20:28 | 53.22366 | -5.94311 | 3536 ft | 215 kts | 24° |
| 2026-05-05 20:28 | 53.23709 | -5.93235 | 3169 ft | 213 kts | 24° |
| 2026-05-05 20:28 | 53.25039 | -5.92230 | 3023 ft | 212 kts | 18° |
| 2026-05-05 20:28 | 53.26456 | -5.91523 | 3009 ft | 213 kts | 14° |
| 2026-05-05 20:29 | 53.27890 | -5.90886 | 3011 ft | 212 kts | 14° |
| 2026-05-05 20:29 | 53.29307 | -5.90267 | 3013 ft | 213 kts | 13° |
| 2026-05-05 20:29 | 53.30742 | -5.89639 | 3012 ft | 212 kts | 13° |
| 2026-05-05 20:29 | 53.32178 | -5.89012 | 3014 ft | 212 kts | 13° |
| 2026-05-05 20:30 | 53.33590 | -5.88393 | 3015 ft | 213 kts | 13° |
| 2026-05-05 20:30 | 53.35023 | -5.87761 | 3014 ft | 212 kts | 14° |
| 2026-05-05 20:30 | 53.36456 | -5.87135 | 3015 ft | 212 kts | 13° |
| 2026-05-05 20:30 | 53.37893 | -5.86593 | 3005 ft | 212 kts | 2° |
| 2026-05-05 20:31 | 53.39263 | -5.87384 | 3015 ft | 214 kts | 321° |
| 2026-05-05 20:31 | 53.40050 | -5.89512 | 3020 ft | 220 kts | 291° |
| 2026-05-05 20:31 | 53.40314 | -5.92065 | 3018 ft | 225 kts | 278° |
| 2026-05-05 20:31 | 53.40405 | -5.94652 | 3018 ft | 225 kts | 277° |
| 2026-05-05 20:32 | 53.40514 | -5.97257 | 3016 ft | 219 kts | 278° |
| 2026-05-05 20:32 | 53.40642 | -5.99700 | 3023 ft | 201 kts | 279° |
| 2026-05-05 20:32 | 53.40762 | -6.01930 | 3030 ft | 186 kts | 280° |
| 2026-05-05 20:32 | 53.40886 | -6.04063 | 2833 ft | 182 kts | 280° |
| 2026-05-05 20:33 | 53.41003 | -6.06156 | 2556 ft | 182 kts | 279° |
| 2026-05-05 20:33 | 53.41116 | -6.08268 | 2286 ft | 182 kts | 279° |
| 2026-05-05 20:33 | 53.41231 | -6.10383 | 2027 ft | 180 kts | 279° |
| 2026-05-05 20:33 | 53.41340 | -6.12405 | 1786 ft | 167 kts | 279° |
| 2026-05-05 20:34 | 53.41441 | -6.14282 | 1547 ft | 156 kts | 278° |
| 2026-05-05 20:34 | 53.41535 | -6.16019 | 1356 ft | 145 kts | 279° |
| 2026-05-05 20:34 | 53.41627 | -6.17672 | 1150 ft | 144 kts | 279° |
| 2026-05-05 20:34 | 53.41692 | -6.19360 | 913 ft | 145 kts | 275° |
| 2026-05-05 20:35 | 53.41794 | -6.21037 | 710 ft | 144 kts | 275° |
| 2026-05-05 20:35 | 53.41889 | -6.22709 | 545 ft | 144 kts | 275° |
| 2026-05-05 20:35 | 53.41984 | -6.24378 | 360 ft | 144 kts | 275° |
| 2026-05-05 20:35 | 53.42078 | -6.26027 | 223 ft | 136 kts | 275° |
| 2026-05-05 20:36 | 53.42143 | -6.27198 | 218 ft | 62 kts | 275° |
| 2026-05-05 20:36 | 53.42176 | -6.27735 | 221 ft | 37 kts | 283° |
| 2026-05-05 20:36 | 53.42244 | -6.27973 | 225 ft | 19 kts | 300° |
| 2026-05-05 20:36 | 53.42331 | -6.28112 | 221 ft | 16 kts | 14° |
| 2026-05-05 20:37 | 53.42358 | -6.27952 | 220 ft | 16 kts | 96° |
| 2026-05-05 20:37 | 53.42350 | -6.27827 | 222 ft | 17 kts | 96° |
| 2026-05-05 20:37 | 53.42335 | -6.27544 | 217 ft | 19 kts | 95° |
| 2026-05-05 20:37 | 53.42322 | -6.27315 | 222 ft | 20 kts | 95° |
| 2026-05-05 20:38 | 53.42309 | -6.27081 | 222 ft | 21 kts | 95° |
| 2026-05-05 20:38 | 53.42296 | -6.26845 | 215 ft | 21 kts | 95° |
| 2026-05-05 20:38 | 53.42282 | -6.26595 | 219 ft | 22 kts | 95° |
| 2026-05-05 20:38 | 53.42268 | -6.26332 | 215 ft | 23 kts | 95° |
| 2026-05-05 20:39 | 53.42253 | -6.26053 | 215 ft | 25 kts | 95° |
| 2026-05-05 20:39 | 53.42236 | -6.25761 | 222 ft | 26 kts | 95° |
| 2026-05-05 20:39 | 53.42219 | -6.25459 | 225 ft | 26 kts | 95° |
| 2026-05-05 20:39 | 53.42202 | -6.25146 | 221 ft | 27 kts | 95° |
| 2026-05-05 20:40 | 53.42187 | -6.24838 | 215 ft | 26 kts | 95° |
| 2026-05-05 20:40 | 53.42171 | -6.24562 | 217 ft | 22 kts | 95° |
| 2026-05-05 20:40 | 53.42169 | -6.24330 | 223 ft | 18 kts | 64° |
| 2026-05-05 20:40 | 53.42249 | -6.24197 | 224 ft | 14 kts | 43° |
| 2026-05-05 20:41 | 53.42313 | -6.24099 | 223 ft | 9 kts | 39° |
| 2026-05-05 20:41 | 53.42354 | -6.24095 | 219 ft | 6 kts | 342° |
| 2026-05-05 20:41 | 53.42384 | -6.24127 | 222 ft | 2 kts | 324° |
| 2026-05-05 20:41 | 53.42396 | -6.24142 | 225 ft | 1 kts | 324° |
| 2026-05-05 20:42 | 53.42397 | -6.24144 | 224 ft | 0 kts | 324° |